Time;durP1;ratioP1;P1;durP2;ratioP2;P2;SDS_P1;SDS_P2;PMS_P1;PMS_P2;Temp;Humidity;BMP_temperature;BMP_pressure;BME280_temperature;BME280_humidity;BME280_pressure;Samples;Min_cycle;Max_cycle;Signal;HPM_P1;HPM_P2
2023/01/17 00:00:10;;;;;;;42.10;19.90;;;;;;;1.96;100.00;96627.05;104696;1301;22576;-38
2023/01/17 00:02:36;;;;;;;41.70;18.50;;;;;;;1.96;100.00;96622.13;104897;1292;22555;-38
2023/01/17 00:10:03;;;;;;;36.20;17.50;;;;;;;2.08;100.00;96614.05;104773;1303;24279;-32
2023/01/17 00:12:29;;;;;;;37.50;17.30;;;;;;;2.09;100.00;96605.49;104816;1292;24274;-32
2023/01/17 00:14:57;;;;;;;32.10;17.00;;;;;;;-75.96;39.40;38638.38;102700;1303;1002870;-36
2023/01/17 00:17:23;;;;;;;34.90;18.10;;;;;;;-128.00;-1.00;-1.00;101126;1295;1004198;-32
2023/01/17 01:34:06;;;;;;;21.70;11.70;;;;;;;-128.00;-1.00;-1.00;101120;1303;1004726;-35
2023/01/17 01:36:31;;;;;;;17.30;10.00;;;;;;;-128.00;-1.00;-1.00;101316;1303;1004776;-35
2023/01/17 01:38:57;;;;;;;29.60;11.50;;;;;;;-128.00;-1.00;-1.00;101216;1303;1004980;-36
2023/01/17 01:41:23;;;;;;;23.60;12.10;;;;;;;-128.00;-1.00;-1.00;101084;1303;1004076;-31
2023/01/17 01:43:50;;;;;;;20.60;10.50;;;;;;;-128.00;-1.00;-1.00;101205;1303;1004878;-37
2023/01/17 01:46:32;;;;;;;17.60;7.70;;;;;;;-128.00;-1.00;-1.00;101115;1303;1004694;-35
2023/01/17 01:49:00;;;;;;;20.80;10.00;;;;;;;-128.00;-1.00;-1.00;100959;1303;1005250;-35
2023/01/17 01:51:29;;;;;;;12.60;7.80;;;;;;;-128.00;-1.00;-1.00;101338;1303;1004159;-31
2023/01/17 01:53:59;;;;;;;15.00;7.60;;;;;;;-128.00;-1.00;-1.00;101142;1303;1004595;-35
2023/01/17 01:56:25;;;;;;;9.90;6.80;;;;;;;-128.00;-1.00;-1.00;101160;1303;1003880;-31
2023/01/17 01:58:51;;;;;;;19.60;7.40;;;;;;;-128.00;-1.00;-1.00;101174;1303;1004837;-31
2023/01/17 02:01:17;;;;;;;14.40;7.30;;;;;;;-128.00;-1.00;-1.00;100893;1303;1004510;-31
2023/01/17 02:03:42;;;;;;;7.60;5.00;;;;;;;-128.00;-1.00;-1.00;101151;1303;1004240;-31
2023/01/17 02:06:32;;;;;;;8.90;5.40;;;;;;;-128.00;-1.00;-1.00;101178;1303;1004677;-31
2023/01/17 02:09:00;;;;;;;10.80;5.90;;;;;;;-128.00;-1.00;-1.00;101201;1303;1004891;-31
2023/01/17 02:11:26;;;;;;;10.70;6.40;;;;;;;-128.00;-1.00;-1.00;101016;1301;1003850;-35
2023/01/17 02:13:52;;;;;;;10.20;4.40;;;;;;;-128.00;-1.00;-1.00;101126;1303;1003987;-32
2023/01/17 02:16:43;;;;;;;6.90;4.20;;;;;;;-128.00;-1.00;-1.00;101138;1303;1004555;-32
2023/01/17 02:19:31;;;;;;;6.60;4.50;;;;;;;-128.00;-1.00;-1.00;101214;1303;1005239;-31
2023/01/17 02:22:16;;;;;;;8.50;4.00;;;;;;;-128.00;-1.00;-1.00;101145;1303;1004465;-31
2023/01/17 02:25:14;;;;;;;5.90;4.20;;;;;;;-128.00;-1.00;-1.00;101114;1303;1004740;-36
2023/01/17 02:27:57;;;;;;;6.70;4.60;;;;;;;-128.00;-1.00;-1.00;101162;1303;1004477;-34
2023/01/17 02:30:31;;;;;;;5.20;4.20;;;;;;;-128.00;-1.00;-1.00;101159;1303;1004614;-34
2023/01/17 02:33:18;;;;;;;9.50;6.20;;;;;;;-128.00;-1.00;-1.00;101212;1299;1004113;-30
2023/01/17 02:35:57;;;;;;;8.90;5.20;;;;;;;-128.00;-1.00;-1.00;101319;1303;1004308;-35
2023/01/17 02:38:37;;;;;;;7.70;5.20;;;;;;;-128.00;-1.00;-1.00;100924;1302;1004229;-34
2023/01/17 02:41:12;;;;;;;10.60;5.40;;;;;;;-128.00;-1.00;-1.00;101127;1301;1003689;-31
2023/01/17 02:43:38;;;;;;;7.50;4.90;;;;;;;-128.00;-1.00;-1.00;101007;1304;1004247;-32
2023/01/17 02:46:04;;;;;;;5.90;4.20;;;;;;;-128.00;-1.00;-1.00;101248;1303;1005228;-31
2023/01/17 02:48:31;;;;;;;4.50;2.90;;;;;;;-128.00;-1.00;-1.00;101028;1304;1004858;-31
2023/01/17 02:51:06;;;;;;;8.40;5.20;;;;;;;-128.00;-1.00;-1.00;100877;1303;1004409;-31
2023/01/17 02:53:57;;;;;;;6.60;3.80;;;;;;;-128.00;-1.00;-1.00;101264;1299;1004286;-33
2023/01/17 02:56:47;;;;;;;8.80;4.80;;;;;;;-128.00;-1.00;-1.00;100990;1303;1004800;-30
2023/01/17 02:59:34;;;;;;;5.40;3.30;;;;;;;-128.00;-1.00;-1.00;101120;1303;1003900;-34
2023/01/17 03:02:24;;;;;;;8.60;4.60;;;;;;;-128.00;-1.00;-1.00;101169;1303;1003906;-30
2023/01/17 03:05:03;;;;;;;5.90;3.60;;;;;;;-128.00;-1.00;-1.00;101328;1303;1004901;-35
2023/01/17 03:07:28;;;;;;;4.60;3.50;;;;;;;-128.00;-1.00;-1.00;101157;1303;1003797;-34
2023/01/17 03:09:58;;;;;;;7.70;3.00;;;;;;;-128.00;-1.00;-1.00;101181;1303;1004886;-36
2023/01/17 03:12:28;;;;;;;8.10;3.40;;;;;;;-128.00;-1.00;-1.00;101190;1303;1003774;-36
2023/01/17 03:14:54;;;;;;;5.30;4.10;;;;;;;-128.00;-1.00;-1.00;101235;1303;1005034;-35
2023/01/17 03:17:20;;;;;;;9.60;4.10;;;;;;;-128.00;-1.00;-1.00;101134;1303;1004403;-36
2023/01/17 03:19:47;;;;;;;6.00;4.70;;;;;;;-128.00;-1.00;-1.00;101221;1303;1004717;-35
2023/01/17 03:22:13;;;;;;;7.90;5.40;;;;;;;-128.00;-1.00;-1.00;101270;1303;1004590;-32
2023/01/17 03:24:39;;;;;;;8.20;4.10;;;;;;;-128.00;-1.00;-1.00;101174;1303;1004595;-33
2023/01/17 03:27:04;;;;;;;10.40;4.50;;;;;;;-128.00;-1.00;-1.00;101142;1303;1004501;-36
2023/01/17 03:29:30;;;;;;;5.70;3.50;;;;;;;-128.00;-1.00;-1.00;101211;1303;1005274;-36
2023/01/17 03:31:57;;;;;;;9.30;4.50;;;;;;;-128.00;-1.00;-1.00;101209;1303;1004445;-33
2023/01/17 03:34:23;;;;;;;9.00;3.90;;;;;;;-128.00;-1.00;-1.00;101135;1303;1004332;-30
2023/01/17 03:36:48;;;;;;;4.10;3.00;;;;;;;-128.00;-1.00;-1.00;101072;1298;1003684;-31
2023/01/17 03:39:14;;;;;;;6.90;3.50;;;;;;;-128.00;-1.00;-1.00;100994;1304;1005326;-33
2023/01/17 03:41:40;;;;;;;7.00;3.70;;;;;;;-128.00;-1.00;-1.00;101334;1303;1003692;-35
2023/01/17 03:44:06;;;;;;;5.30;3.10;;;;;;;-128.00;-1.00;-1.00;101325;1303;1004773;-31
2023/01/17 03:46:32;;;;;;;4.80;3.50;;;;;;;-128.00;-1.00;-1.00;101106;1303;1004600;-30
2023/01/17 03:48:58;;;;;;;5.00;3.30;;;;;;;-128.00;-1.00;-1.00;101204;1303;1004570;-31
2023/01/17 03:51:24;;;;;;;6.00;3.80;;;;;;;-128.00;-1.00;-1.00;101271;1303;1004828;-31
2023/01/17 03:53:50;;;;;;;6.20;3.10;;;;;;;-128.00;-1.00;-1.00;101156;1303;1004335;-34
2023/01/17 03:56:16;;;;;;;9.00;3.70;;;;;;;-128.00;-1.00;-1.00;101179;1303;1005164;-35
2023/01/17 03:58:42;;;;;;;4.40;3.30;;;;;;;-128.00;-1.00;-1.00;101160;1303;1004627;-35
2023/01/17 04:01:08;;;;;;;7.20;3.30;;;;;;;-128.00;-1.00;-1.00;101176;1303;1004509;-34
2023/01/17 04:03:34;;;;;;;5.20;3.70;;;;;;;-128.00;-1.00;-1.00;101118;1303;1004183;-34
2023/01/17 04:06:00;;;;;;;3.80;3.10;;;;;;;-128.00;-1.00;-1.00;101070;1303;1004698;-31
2023/01/17 04:08:26;;;;;;;5.50;2.10;;;;;;;-128.00;-1.00;-1.00;101163;1303;1004667;-35
2023/01/17 04:10:51;;;;;;;6.20;3.40;;;;;;;-128.00;-1.00;-1.00;101295;1303;1004869;-35
2023/01/17 04:13:17;;;;;;;5.20;3.80;;;;;;;-128.00;-1.00;-1.00;101148;1303;1004751;-35
2023/01/17 04:15:47;;;;;;;4.90;3.60;;;;;;;-128.00;-1.00;-1.00;101194;1303;1004473;-35
2023/01/17 04:18:13;;;;;;;4.90;2.80;;;;;;;-128.00;-1.00;-1.00;101237;1303;1004428;-31
2023/01/17 04:20:39;;;;;;;3.80;2.60;;;;;;;-128.00;-1.00;-1.00;101346;1303;1004968;-32
2023/01/17 04:23:05;;;;;;;9.10;4.40;;;;;;;-128.00;-1.00;-1.00;100869;1303;1004801;-32
2023/01/17 04:25:31;;;;;;;4.90;2.70;;;;;;;-128.00;-1.00;-1.00;101280;1303;1004740;-31
2023/01/17 04:27:58;;;;;;;3.00;2.60;;;;;;;-128.00;-1.00;-1.00;101111;1303;1004691;-31
2023/01/17 04:30:24;;;;;;;5.10;3.00;;;;;;;-128.00;-1.00;-1.00;101356;1303;1004406;-35
2023/01/17 04:32:49;;;;;;;3.80;2.30;;;;;;;-128.00;-1.00;-1.00;101241;1303;1005001;-31
2023/01/17 04:35:15;;;;;;;5.20;2.80;;;;;;;-128.00;-1.00;-1.00;101137;1303;1004415;-35
2023/01/17 05:15:03;;;;;;;4.40;3.50;;;;;;;0.73;100.00;96620.07;104705;1302;557991;-30
2023/01/17 05:17:29;;;;;;;9.10;4.10;;;;;;;0.82;100.00;96628.14;104402;1298;387237;-33
2023/01/17 05:19:54;;;;;;;5.40;3.30;;;;;;;0.82;100.00;96626.72;104814;1299;24855;-30
2023/01/17 05:22:20;;;;;;;6.60;3.90;;;;;;;0.77;100.00;96623.98;104954;1295;22660;-30
2023/01/17 05:24:46;;;;;;;9.20;5.70;;;;;;;0.77;100.00;96621.42;104908;1292;22571;-31
2023/01/17 05:27:12;;;;;;;5.10;4.10;;;;;;;0.80;100.00;96624.10;104922;1292;24423;-35
2023/01/17 05:29:38;;;;;;;6.20;3.80;;;;;;;0.77;100.00;96623.30;104884;1302;23478;-35
2023/01/17 05:32:04;;;;;;;5.30;3.80;;;;;;;0.81;100.00;96628.45;104804;1292;22775;-33
2023/01/17 05:34:30;;;;;;;4.70;3.60;;;;;;;0.80;100.00;96626.41;104873;1292;24326;-35
2023/01/17 05:36:56;;;;;;;7.80;3.60;;;;;;;0.82;100.00;96628.66;104682;1292;22666;-34
2023/01/17 05:39:22;;;;;;;4.00;2.70;;;;;;;0.84;100.00;96630.53;104896;1292;24278;-35
2023/01/17 05:41:47;;;;;;;6.10;4.60;;;;;;;0.85;100.00;96626.92;104929;1292;22817;-35
2023/01/17 05:44:14;;;;;;;7.60;4.70;;;;;;;0.89;100.00;96631.06;104850;1292;22811;-31
2023/01/17 05:46:40;;;;;;;4.30;3.50;;;;;;;0.88;100.00;96625.23;104998;1302;22621;-34
2023/01/17 05:49:06;;;;;;;6.50;3.90;;;;;;;0.89;100.00;96626.95;104943;1292;24034;-31
2023/01/17 05:51:36;;;;;;;5.50;3.40;;;;;;;0.87;100.00;96634.63;104869;1286;22663;-31
2023/01/17 05:54:03;;;;;;;10.20;2.90;;;;;;;0.87;100.00;96639.27;104800;1292;22568;-31
2023/01/17 05:56:29;;;;;;;8.10;3.30;;;;;;;0.85;100.00;96646.75;104783;1302;22672;-35
2023/01/17 05:58:55;;;;;;;5.00;3.40;;;;;;;0.85;100.00;96649.40;104744;1292;22670;-34
2023/01/17 06:01:21;;;;;;;5.10;3.70;;;;;;;0.86;100.00;96650.29;104771;1292;25529;-36
2023/01/17 06:03:46;;;;;;;6.20;3.90;;;;;;;0.85;100.00;96657.00;104792;1292;22758;-35
2023/01/17 06:06:12;;;;;;;5.10;3.20;;;;;;;0.83;100.00;96655.45;104926;1292;22650;-34
2023/01/17 06:08:38;;;;;;;5.50;3.60;;;;;;;0.82;100.00;96650.85;104963;1292;24310;-31
2023/01/17 06:11:04;;;;;;;5.50;4.70;;;;;;;0.81;100.00;96654.80;104833;1292;24402;-31
2023/01/17 06:13:30;;;;;;;4.70;3.90;;;;;;;0.78;100.00;96648.61;104639;1285;22550;-30
2023/01/17 06:16:01;;;;;;;5.60;3.70;;;;;;;0.75;100.00;96646.46;104851;1298;24904;-34
2023/01/17 06:18:27;;;;;;;3.80;2.90;;;;;;;0.77;100.00;96647.61;104893;1302;23176;-29
2023/01/17 06:20:53;;;;;;;3.50;3.10;;;;;;;0.78;100.00;96656.22;104804;1292;22998;-34
2023/01/17 06:23:19;;;;;;;5.80;3.20;;;;;;;0.80;100.00;96652.52;104756;1292;22654;-30
2023/01/17 06:25:45;;;;;;;7.00;3.20;;;;;;;0.81;100.00;96660.31;104916;1298;23039;-33
2023/01/17 06:28:13;;;;;;;6.30;3.70;;;;;;;0.83;100.00;96657.77;104900;1291;22630;-30
2023/01/17 06:30:39;;;;;;;3.70;2.90;;;;;;;0.83;100.00;96660.77;104787;1302;22663;-34
2023/01/17 06:33:05;;;;;;;6.20;4.00;;;;;;;0.83;100.00;96659.97;104878;1302;25304;-30
2023/01/17 06:35:30;;;;;;;5.90;4.20;;;;;;;0.86;100.00;96660.80;104866;1292;22789;-34
2023/01/17 06:37:58;;;;;;;6.00;4.60;;;;;;;0.86;100.00;96659.06;104827;1291;22555;-29
2023/01/17 06:40:24;;;;;;;4.60;3.90;;;;;;;0.86;100.00;96660.65;105020;1292;22775;-34
2023/01/17 06:42:50;;;;;;;6.80;4.40;;;;;;;0.86;100.00;96656.38;104857;1302;22806;-31
2023/01/17 06:45:16;;;;;;;7.10;5.20;;;;;;;0.90;100.00;96657.73;104780;1299;22783;-35
2023/01/17 06:47:42;;;;;;;7.40;4.00;;;;;;;0.93;100.00;96659.97;104798;1301;22938;-31
2023/01/17 06:50:11;;;;;;;6.20;3.90;;;;;;;0.96;100.00;96664.84;104854;1292;22625;-35
2023/01/17 06:52:36;;;;;;;4.70;4.00;;;;;;;0.99;100.00;96663.39;104807;1289;22650;-34
2023/01/17 06:55:02;;;;;;;4.50;3.90;;;;;;;0.99;100.00;96666.20;104764;1290;24188;-30
2023/01/17 06:57:28;;;;;;;8.20;5.30;;;;;;;1.01;100.00;96670.26;104988;1298;22824;-34
2023/01/17 06:59:54;;;;;;;7.80;4.70;;;;;;;1.02;100.00;96671.43;104816;1302;22622;-34
2023/01/17 07:02:20;;;;;;;6.30;4.60;;;;;;;1.00;100.00;96666.93;104820;1292;22663;-34
2023/01/17 07:04:45;;;;;;;5.20;4.20;;;;;;;1.03;100.00;96673.30;104775;1292;22559;-30
2023/01/17 07:07:11;;;;;;;4.50;3.20;;;;;;;1.03;100.00;96670.95;104865;1301;23029;-30
2023/01/17 07:09:37;;;;;;;5.20;3.40;;;;;;;1.03;100.00;96673.46;104864;1302;24400;-30
2023/01/17 07:12:03;;;;;;;5.10;3.60;;;;;;;0.98;100.00;96679.65;104893;1292;23030;-30
2023/01/17 07:14:28;;;;;;;10.10;4.50;;;;;;;0.99;100.00;96680.20;104860;1292;22666;-35
2023/01/17 07:16:54;;;;;;;4.50;3.90;;;;;;;1.00;100.00;96682.61;104971;1298;22657;-36
2023/01/17 07:19:21;;;;;;;4.20;2.90;;;;;;;1.01;100.00;96688.39;104865;1302;22663;-32
2023/01/17 07:21:51;;;;;;;5.90;3.70;;;;;;;1.02;100.00;96689.09;104840;1292;23031;-35
2023/01/17 07:24:17;;;;;;;8.40;4.10;;;;;;;1.03;100.00;96688.84;104904;1302;23165;-34
2023/01/17 07:26:46;;;;;;;4.60;2.70;;;;;;;1.07;100.00;96690.02;104886;1302;23026;-30
2023/01/17 07:29:12;;;;;;;5.50;3.40;;;;;;;1.09;100.00;96690.75;104863;1293;23025;-34
2023/01/17 07:31:39;;;;;;;6.40;4.50;;;;;;;1.12;100.00;96685.67;104930;1291;24364;-31
2023/01/17 07:34:05;;;;;;;7.60;4.80;;;;;;;1.12;100.00;96682.95;104825;1292;23158;-35
2023/01/17 07:36:30;;;;;;;6.40;4.50;;;;;;;1.17;100.00;96682.64;104715;1302;22647;-36
2023/01/17 07:38:56;;;;;;;5.80;4.40;;;;;;;1.18;100.00;96679.72;104792;1292;22672;-33
2023/01/17 07:41:22;;;;;;;6.90;4.60;;;;;;;1.21;100.00;96682.09;105017;1288;22804;-30
2023/01/17 07:43:48;;;;;;;5.90;4.70;;;;;;;1.29;100.00;96675.61;104844;1292;22660;-34
2023/01/17 07:46:14;;;;;;;7.70;4.30;;;;;;;1.31;100.00;96679.67;104827;1292;23021;-29
2023/01/17 07:48:40;;;;;;;6.00;5.10;;;;;;;1.33;100.00;96688.13;104911;1292;24307;-35
2023/01/17 07:51:06;;;;;;;6.60;4.90;;;;;;;1.34;100.00;96693.21;104958;1293;25354;-29
2023/01/17 07:53:32;;;;;;;7.60;4.90;;;;;;;1.41;100.00;96692.35;104864;1292;22556;-33
2023/01/17 07:56:03;;;;;;;7.00;4.60;;;;;;;1.42;100.00;96692.36;104784;1299;23115;-33
2023/01/17 07:58:29;;;;;;;6.20;5.10;;;;;;;1.49;100.00;96693.20;104803;1302;22791;-33
2023/01/17 08:01:01;;;;;;;8.20;5.40;;;;;;;1.54;100.00;96693.61;104982;1291;23255;-33
2023/01/17 08:03:31;;;;;;;9.40;4.70;;;;;;;1.57;100.00;96699.02;104785;1292;22656;-30
2023/01/17 08:05:57;;;;;;;8.00;4.90;;;;;;;1.57;100.00;96698.86;104897;1292;22663;-34
2023/01/17 08:08:22;;;;;;;8.20;4.70;;;;;;;1.57;100.00;96698.13;104855;1292;22813;-34
2023/01/17 08:10:50;;;;;;;7.30;4.80;;;;;;;1.54;100.00;96694.99;104831;1282;22671;-34
2023/01/17 08:13:16;;;;;;;6.50;3.60;;;;;;;1.62;100.00;96700.92;104862;1302;22598;-30
2023/01/17 08:15:42;;;;;;;5.30;3.60;;;;;;;1.61;100.00;96696.89;104903;1302;25392;-33
2023/01/17 08:21:03;;;;;;;8.30;4.30;;;;;;;1.79;100.00;96714.56;103461;1306;544955;-30
2023/01/17 08:23:30;;;;;;;6.90;4.40;;;;;;;1.80;100.00;96716.31;103681;1311;22824;-34
2023/01/17 08:26:00;;;;;;;5.20;3.40;;;;;;;1.79;100.00;96718.10;103803;1311;22571;-30
2023/01/17 08:28:26;;;;;;;9.00;3.50;;;;;;;1.85;100.00;96717.03;103719;1305;22673;-34
2023/01/17 08:30:52;;;;;;;9.70;4.00;;;;;;;1.85;100.00;96722.58;103644;1312;23173;-29
2023/01/17 08:33:17;;;;;;;5.60;3.60;;;;;;;1.85;100.00;96728.67;103865;1306;24327;-34
2023/01/17 08:35:53;;;;;;;6.00;3.80;;;;;;;1.89;100.00;96728.07;103478;1307;522952;-34
2023/01/17 08:38:19;;;;;;;6.30;3.90;;;;;;;1.92;100.00;96730.98;104069;1308;26429;-37
2023/01/17 08:40:45;;;;;;;6.90;4.70;;;;;;;1.99;100.00;96730.65;103881;1311;24313;-32
2023/01/17 08:43:11;;;;;;;6.70;3.70;;;;;;;2.03;100.00;96731.81;103912;1301;22672;-33
2023/01/17 08:45:37;;;;;;;8.60;3.90;;;;;;;2.04;100.00;96736.98;103761;1305;22814;-30
2023/01/17 08:48:03;;;;;;;6.00;3.80;;;;;;;-49.93;59.60;58045.61;102545;1311;1003817;-35
2023/01/17 08:50:29;;;;;;;8.60;3.60;;;;;;;-128.00;-1.00;-1.00;100382;1311;1004583;-30
2023/01/17 08:52:58;;;;;;;17.50;4.00;;;;;;;-128.00;-1.00;-1.00;100476;1311;1004701;-31
2023/01/17 08:55:24;;;;;;;12.90;4.20;;;;;;;-128.00;-1.00;-1.00;100397;1311;1004331;-34
2023/01/17 08:57:50;;;;;;;6.20;4.10;;;;;;;-128.00;-1.00;-1.00;100312;1311;1004787;-30
2023/01/17 09:00:16;;;;;;;9.50;3.60;;;;;;;-128.00;-1.00;-1.00;100435;1311;1005708;-30
2023/01/17 09:02:42;;;;;;;7.10;4.50;;;;;;;-128.00;-1.00;-1.00;100419;1311;1004730;-34
2023/01/17 09:05:08;;;;;;;8.30;4.90;;;;;;;-128.00;-1.00;-1.00;100424;1311;1004637;-35
2023/01/17 09:07:34;;;;;;;5.50;4.30;;;;;;;-128.00;-1.00;-1.00;100392;1311;1004108;-34
2023/01/17 09:10:00;;;;;;;3.40;2.70;;;;;;;-128.00;-1.00;-1.00;100086;1311;1004419;-32
2023/01/17 09:12:25;;;;;;;5.70;4.20;;;;;;;-128.00;-1.00;-1.00;100514;1311;1004732;-31
2023/01/17 09:14:51;;;;;;;5.00;4.00;;;;;;;-128.00;-1.00;-1.00;100253;1311;1004762;-34
2023/01/17 09:17:17;;;;;;;6.60;3.60;;;;;;;-128.00;-1.00;-1.00;100494;1311;1004285;-32
2023/01/17 09:19:44;;;;;;;6.10;4.00;;;;;;;-128.00;-1.00;-1.00;100466;1311;1004209;-29
2023/01/17 09:22:10;;;;;;;5.90;4.00;;;;;;;-128.00;-1.00;-1.00;100447;1311;1004554;-30
2023/01/17 09:24:36;;;;;;;7.10;4.90;;;;;;;-128.00;-1.00;-1.00;100317;1311;1004842;-33
2023/01/17 09:27:02;;;;;;;7.00;6.00;;;;;;;-128.00;-1.00;-1.00;100363;1311;1003829;-33
2023/01/17 09:29:28;;;;;;;4.20;3.30;;;;;;;-128.00;-1.00;-1.00;100338;1311;1005177;-33
2023/01/17 09:31:54;;;;;;;10.60;4.40;;;;;;;-128.00;-1.00;-1.00;100374;1311;1005412;-30
2023/01/17 09:34:22;;;;;;;7.00;4.60;;;;;;;-128.00;-1.00;-1.00;100328;1311;1005070;-30
2023/01/17 09:36:48;;;;;;;6.70;3.70;;;;;;;-128.00;-1.00;-1.00;100493;1311;1004587;-30
2023/01/17 09:39:14;;;;;;;10.50;4.90;;;;;;;-128.00;-1.00;-1.00;100317;1311;1004994;-35
2023/01/17 09:41:47;;;;;;;8.60;4.00;;;;;;;-128.00;-1.00;-1.00;100469;1311;1004534;-30
2023/01/17 09:44:45;;;;;;;7.90;4.00;;;;;;;-128.00;-1.00;-1.00;100257;1308;1003620;-34
2023/01/17 09:47:30;;;;;;;6.40;3.20;;;;;;;-128.00;-1.00;-1.00;100505;1311;1004104;-35
2023/01/17 09:49:58;;;;;;;7.90;4.20;;;;;;;-128.00;-1.00;-1.00;100330;1308;1003811;-31
2023/01/17 09:52:24;;;;;;;5.30;3.60;;;;;;;-128.00;-1.00;-1.00;100382;1311;1004377;-34
2023/01/17 09:54:49;;;;;;;11.30;3.90;;;;;;;-128.00;-1.00;-1.00;100401;1311;1005014;-34
2023/01/17 09:57:33;;;;;;;5.50;3.90;;;;;;;-128.00;-1.00;-1.00;100274;1311;1004927;-34
2023/01/17 10:00:11;;;;;;;3.90;2.80;;;;;;;-128.00;-1.00;-1.00;100473;1311;1004101;-34
2023/01/17 10:02:49;;;;;;;8.70;3.20;;;;;;;-128.00;-1.00;-1.00;100324;1308;1004890;-34
2023/01/17 10:05:31;;;;;;;4.20;2.30;;;;;;;-128.00;-1.00;-1.00;100434;1311;1004405;-34
2023/01/17 10:08:05;;;;;;;5.00;3.60;;;;;;;-128.00;-1.00;-1.00;100297;1311;1004518;-31
2023/01/17 10:10:40;;;;;;;6.90;3.40;;;;;;;-128.00;-1.00;-1.00;100215;1308;1004315;-30
2023/01/17 10:13:15;;;;;;;2.90;1.60;;;;;;;-128.00;-1.00;-1.00;100225;1311;1004765;-30
2023/01/17 10:15:56;;;;;;;6.50;5.00;;;;;;;-128.00;-1.00;-1.00;100426;1311;1004594;-35
2023/01/17 10:18:51;;;;;;;4.60;2.20;;;;;;;-128.00;-1.00;-1.00;100269;1311;1005592;-36
2023/01/17 10:21:32;;;;;;;3.80;2.80;;;;;;;-128.00;-1.00;-1.00;100466;1311;1004335;-34
2023/01/17 10:24:20;;;;;;;4.50;2.10;;;;;;;-128.00;-1.00;-1.00;100249;1311;1004357;-31
2023/01/17 10:26:48;;;;;;;2.60;1.80;;;;;;;-128.00;-1.00;-1.00;100495;1311;1005416;-37
2023/01/17 10:29:17;;;;;;;5.00;1.90;;;;;;;-128.00;-1.00;-1.00;100323;1311;1004676;-30
2023/01/17 10:31:49;;;;;;;3.30;1.60;;;;;;;-128.00;-1.00;-1.00;100348;1311;1005406;-35
2023/01/17 10:34:22;;;;;;;3.90;2.40;;;;;;;-128.00;-1.00;-1.00;100434;1311;1004330;-32
2023/01/17 10:36:51;;;;;;;3.40;2.20;;;;;;;-128.00;-1.00;-1.00;100245;1311;1003596;-32
2023/01/17 10:39:24;;;;;;;2.50;1.50;;;;;;;-128.00;-1.00;-1.00;100433;1311;1003805;-32
2023/01/17 10:41:54;;;;;;;7.00;1.80;;;;;;;-128.00;-1.00;-1.00;100382;1311;1004972;-35
2023/01/17 10:44:40;;;;;;;2.60;1.30;;;;;;;-128.00;-1.00;-1.00;100365;1311;1003949;-31
2023/01/17 10:47:13;;;;;;;1.50;0.90;;;;;;;-128.00;-1.00;-1.00;100355;1311;1004855;-37
2023/01/17 10:49:44;;;;;;;;;;;;;;;-128.00;-1.00;-1.00;100270;1311;1004950;-37
2023/01/17 10:52:26;;;;;;;2.30;1.50;;;;;;;-128.00;-1.00;-1.00;100292;1311;1004966;-33
2023/01/17 10:55:10;;;;;;;5.10;0.80;;;;;;;-128.00;-1.00;-1.00;100768;1309;1004687;-30
2023/01/17 10:57:40;;;;;;;5.60;0.70;;;;;;;-128.00;-1.00;-1.00;100590;1307;1004212;-31
2023/01/17 11:00:38;;;;;;;2.50;1.20;;;;;;;-128.00;-1.00;-1.00;100589;1309;1004257;-35
2023/01/17 11:03:04;;;;;;;1.50;0.80;;;;;;;-128.00;-1.00;-1.00;100481;1309;1004617;-31
2023/01/17 11:47:08;;;;;;;1.10;0.50;;;;;;;9.30;54.10;96762.59;104596;1280;557897;-31
2023/01/17 11:49:34;;;;;;;1.00;0.50;;;;;;;8.91;51.73;96766.61;104311;1295;398330;-34
2023/01/17 11:52:03;;;;;;;0.90;0.50;;;;;;;9.01;50.33;96763.15;104689;1292;24416;-35
2023/01/17 11:54:37;;;;;;;2.90;0.80;;;;;;;8.78;52.64;96761.33;104819;1292;24345;-30
2023/01/17 11:57:03;;;;;;;1.70;0.60;;;;;;;8.99;52.47;96762.33;104736;1292;22574;-32
2023/01/17 11:59:34;;;;;;;2.70;0.80;;;;;;;8.92;51.34;96754.73;104776;1303;22558;-36
2023/01/17 12:02:32;;;;;;;0.80;0.60;;;;;;;8.53;53.51;96758.23;104815;1292;23161;-35
2023/01/17 12:05:22;;;;;;;1.80;0.80;;;;;;;8.28;55.27;96758.59;104764;1292;24431;-36
2023/01/17 12:07:56;;;;;;;1.90;0.90;;;;;;;8.30;55.13;96759.70;104738;1284;22802;-36
2023/01/17 12:10:28;;;;;;;1.00;0.70;;;;;;;8.22;51.98;96757.31;104720;1283;25303;-31
2023/01/17 12:15:56;;;;;;;0.90;0.40;;;;;;;7.48;53.45;96760.93;104867;1286;24352;-31
2023/01/17 12:18:43;;;;;;;2.40;1.20;;;;;;;7.04;54.28;96765.08;104710;1280;24301;-36
2023/01/17 12:21:16;;;;;;;3.90;1.40;;;;;;;6.23;59.94;96762.59;104714;1292;24278;-31
2023/01/17 12:24:07;;;;;;;1.70;0.80;;;;;;;6.08;62.07;96760.20;104707;1285;22755;-34
2023/01/17 12:26:36;;;;;;;2.70;0.40;;;;;;;6.46;61.64;96754.11;104735;1299;22579;-36
2023/01/17 12:29:21;;;;;;;1.90;0.80;;;;;;;6.87;59.28;96747.09;104750;1285;24828;-34
2023/01/17 12:32:10;;;;;;;0.50;0.20;;;;;;;7.18;58.49;96743.87;104731;1292;22669;-35
2023/01/17 12:34:42;;;;;;;1.60;0.80;;;;;;;7.91;56.18;96736.98;104675;1292;23035;-30
2023/01/17 12:37:19;;;;;;;1.00;0.40;;;;;;;8.40;55.47;96743.09;104944;1291;23034;-30
2023/01/17 12:39:50;;;;;;;0.70;0.40;;;;;;;8.62;50.52;96748.40;104753;1284;22569;-31
2023/01/17 12:42:18;;;;;;;1.90;0.40;;;;;;;8.79;48.43;96749.84;104761;1292;22664;-32
2023/01/17 12:44:56;;;;;;;1.60;0.40;;;;;;;8.14;47.98;96753.95;104936;1289;22500;-32
2023/01/17 12:47:23;;;;;;;0.50;0.20;;;;;;;7.55;49.46;96761.37;104665;1292;22632;-34
2023/01/17 12:50:04;;;;;;;0.90;0.40;;;;;;;7.32;49.30;96769.70;104734;1303;23560;-31
2023/01/17 12:52:48;;;;;;;0.20;0.20;;;;;;;7.37;49.94;96771.60;104682;1303;24297;-36
2023/01/17 12:55:20;;;;;;;0.40;0.30;;;;;;;7.06;49.87;96773.60;104734;1292;24312;-35
2023/01/17 12:57:51;;;;;;;0.60;0.40;;;;;;;6.90;50.00;96779.82;104707;1303;24502;-35
2023/01/17 13:00:22;;;;;;;0.70;0.40;;;;;;;6.91;50.33;96781.15;104772;1288;22659;-31
2023/01/17 13:02:58;;;;;;;1.00;0.50;;;;;;;7.30;52.00;96783.96;104694;1292;24273;-35
2023/01/17 13:05:35;;;;;;;1.50;0.20;;;;;;;7.56;50.20;96782.01;104725;1302;24221;-30
2023/01/17 13:08:12;;;;;;;1.60;0.80;;;;;;;7.31;49.31;96789.48;104677;1292;24299;-34
2023/01/17 13:10:40;;;;;;;0.30;0.30;;;;;;;6.87;50.61;96795.70;104746;1292;22776;-35
2023/01/17 13:13:20;;;;;;;1.40;0.80;;;;;;;6.51;53.04;96801.89;104822;1303;24207;-30
2023/01/17 13:15:49;;;;;;;1.40;0.50;;;;;;;6.65;53.18;96798.71;104649;1295;22783;-33
2023/01/17 13:18:21;;;;;;;1.30;0.40;;;;;;;6.27;53.57;96790.81;104760;1286;24350;-31
2023/01/17 13:21:09;;;;;;;1.10;0.40;;;;;;;6.05;54.83;96793.59;104688;1292;23969;-30
2023/01/17 13:24:15;;;;;;;0.70;0.30;;;;;;;6.14;54.87;96791.33;104726;1286;24277;-30
2023/01/17 13:27:04;;;;;;;1.70;0.50;;;;;;;6.40;56.68;96785.25;104771;1299;22562;-36
2023/01/17 13:29:47;;;;;;;0.70;0.30;;;;;;;6.98;53.74;96786.32;104780;1292;24266;-36
2023/01/17 13:32:33;;;;;;;1.30;0.60;;;;;;;7.47;53.49;96784.85;104781;1292;23031;-31
2023/01/17 13:35:22;;;;;;;1.20;0.40;;;;;;;7.97;52.83;96783.05;104810;1292;23156;-34
2023/01/17 13:38:28;;;;;;;0.60;0.40;;;;;;;8.33;52.94;96786.52;104807;1303;24242;-37
2023/01/17 13:41:20;;;;;;;0.80;0.50;;;;;;;8.65;51.65;96795.80;104680;1303;24388;-30
2023/01/17 13:44:20;;;;;;;3.60;0.80;;;;;;;8.72;50.11;96801.60;104872;1303;22689;-31
2023/01/17 13:46:56;;;;;;;1.80;0.50;;;;;;;8.22;47.69;96796.49;104743;1292;22864;-35
2023/01/17 13:49:55;;;;;;;1.70;0.70;;;;;;;7.88;49.01;96797.45;104750;1292;23169;-33
2023/01/17 13:52:30;;;;;;;1.40;0.80;;;;;;;8.26;48.98;96803.70;104716;1303;23076;-35
2023/01/17 13:55:01;;;;;;;1.00;0.60;;;;;;;8.10;48.82;96816.18;104857;1284;23919;-34
2023/01/17 13:57:31;;;;;;;1.40;0.50;;;;;;;7.96;50.66;96826.48;104763;1292;24288;-31
2023/01/17 14:00:29;;;;;;;1.10;0.50;;;;;;;8.02;50.12;96832.19;104818;1292;22560;-30
2023/01/17 14:02:55;;;;;;;3.10;0.60;;;;;;;8.02;50.37;96835.09;104742;1303;24205;-30
2023/01/17 14:05:41;;;;;;;1.20;0.40;;;;;;;8.26;48.84;96836.27;104713;1292;22699;-32
2023/01/17 14:08:20;;;;;;;2.20;0.90;;;;;;;8.14;48.94;96851.63;104967;1292;24455;-32
2023/01/17 14:10:47;;;;;;;3.00;0.60;;;;;;;8.06;49.39;96857.14;104854;1303;24308;-36
2023/01/17 14:13:33;;;;;;;0.70;0.50;;;;;;;7.92;48.80;96861.64;104701;1303;24486;-35
2023/01/17 14:15:59;;;;;;;0.80;0.50;;;;;;;7.61;50.57;96866.34;104725;1291;24808;-36
2023/01/17 14:18:32;;;;;;;0.90;0.60;;;;;;;7.56;51.08;96876.14;104649;1295;22641;-33
2023/01/17 14:21:05;;;;;;;1.00;0.50;;;;;;;7.48;50.96;96886.47;104806;1289;25256;-35
2023/01/17 14:23:34;;;;;;;1.50;0.50;;;;;;;7.15;51.69;96891.86;104822;1299;25438;-30